Time,TemperatureF,DewpointF,PressureIn,WindDirection,WindDirectionDegrees,WindSpeedMPH,WindSpeedGustMPH,Humidity,HourlyPrecipIn,Conditions,Clouds,dailyrainin,SolarRadiationWatts/m^2,SoftwareType,DateUTC
2013-09-29 00:00:00,69.0,51.0,-100.00,South,180,5.0,-999.0,52,-99.99,,,-99.99,0.000000,,2013-09-29 04:00:00,
2013-09-29 00:44:00,69.0,51.0,-100.00,South,180,5.0,-999.0,52,-99.99,,,-99.99,0.000000,,2013-09-29 04:44:00,
2013-09-29 00:54:00,69.0,51.0,-100.00,South,180,5.0,-999.0,52,-99.99,,,-99.99,0.000000,,2013-09-29 04:54:00,
2013-09-29 01:00:00,69.0,52.0,-100.00,South,180,5.0,-999.0,54,-99.99,,,-99.99,0.000000,,2013-09-29 05:00:00,
2013-09-29 01:43:00,69.0,52.0,-100.00,South,180,5.0,-999.0,54,-99.99,,,-99.99,0.000000,,2013-09-29 05:43:00,
2013-09-29 01:53:00,69.0,52.0,-100.00,South,180,5.0,-999.0,54,-99.99,,,-99.99,0.000000,,2013-09-29 05:53:00,
2013-09-29 02:00:00,69.0,53.0,-100.00,South,180,4.0,-999.0,57,-99.99,,,-99.99,0.000000,,2013-09-29 06:00:00,
2013-09-29 02:42:00,69.0,53.0,-100.00,South,180,4.0,-999.0,57,-99.99,,,-99.99,0.000000,,2013-09-29 06:42:00,
2013-09-29 02:52:00,69.0,53.0,-100.00,South,180,4.0,-999.0,57,-99.99,,,-99.99,0.000000,,2013-09-29 06:52:00,
2013-09-29 03:00:00,69.0,54.0,-100.00,SSW,202,5.0,-999.0,57,-99.99,,,-99.99,0.000000,,2013-09-29 07:00:00,
2013-09-29 03:43:00,69.0,54.0,-100.00,SSW,202,5.0,-999.0,57,-99.99,,,-99.99,0.000000,,2013-09-29 07:43:00,
2013-09-29 03:52:00,69.0,54.0,-100.00,SSW,202,5.0,-999.0,57,-99.99,,,-99.99,0.000000,,2013-09-29 07:52:00,
2013-09-29 04:00:00,66.0,59.0,-100.00,WSW,247,8.0,-999.0,75,-99.99,,,-99.99,0.000000,,2013-09-29 08:00:00,
2013-09-29 04:42:00,66.0,59.0,-100.00,WSW,247,8.0,-999.0,75,-99.99,,,-99.99,0.000000,,2013-09-29 08:42:00,
2013-09-29 04:52:00,66.0,59.0,-100.00,WSW,247,8.0,-999.0,75,-99.99,,,-99.99,0.000000,,2013-09-29 08:52:00,
2013-09-29 05:00:00,61.0,59.0,-100.00,WNW,292,7.0,-999.0,91,0.24,,,-99.99,0.000000,,2013-09-29 09:00:00,
2013-09-29 05:43:00,61.0,59.0,-100.00,WNW,292,7.0,-999.0,91,0.24,,,-99.99,0.000000,,2013-09-29 09:43:00,
2013-09-29 05:54:00,61.0,59.0,-100.00,WNW,292,7.0,-999.0,91,0.24,,,-99.99,0.000000,,2013-09-29 09:54:00,
2013-09-29 06:00:00,57.0,55.0,-100.00,NW,315,8.0,-999.0,93,0.26,,,-99.99,0.000000,,2013-09-29 10:00:00,
2013-09-29 06:43:00,57.0,55.0,-100.00,NW,315,8.0,-999.0,93,0.26,,,-99.99,0.000000,,2013-09-29 10:43:00,
2013-09-29 06:53:00,57.0,55.0,-100.00,NW,315,8.0,-999.0,93,0.26,,,-99.99,0.000000,,2013-09-29 10:53:00,
2013-09-29 07:00:00,55.0,53.0,-100.00,NW,315,6.0,-999.0,93,0.02,,,-99.99,0.000000,,2013-09-29 11:00:00,
2013-09-29 07:42:00,55.0,53.0,-100.00,NW,315,6.0,-999.0,93,0.02,,,-99.99,0.000000,,2013-09-29 11:42:00,
2013-09-29 07:52:00,55.0,53.0,-100.00,NW,315,6.0,-999.0,93,0.02,,,-99.99,0.000000,,2013-09-29 11:52:00,
2013-09-29 08:00:00,54.0,52.0,-100.00,NW,315,3.0,-999.0,94,-99.99,,,-99.99,1.160000,,2013-09-29 12:00:00,
2013-09-29 08:42:00,54.0,52.0,-100.00,NW,315,3.0,-999.0,94,-99.99,,,-99.99,1.160000,,2013-09-29 12:42:00,
2013-09-29 08:52:00,54.0,52.0,-100.00,NW,315,3.0,-999.0,94,-99.99,,,-99.99,1.160000,,2013-09-29 12:52:00,
2013-09-29 09:00:00,54.0,53.0,-100.00,NW,315,4.0,-999.0,94,-99.99,,,-99.99,30.160000,,2013-09-29 13:00:00,
2013-09-29 09:42:00,54.0,53.0,-100.00,NW,315,4.0,-999.0,94,-99.99,,,-99.99,30.160000,,2013-09-29 13:42:00,
2013-09-29 09:53:00,54.0,53.0,-100.00,NW,315,4.0,-999.0,94,-99.99,,,-99.99,30.160000,,2013-09-29 13:53:00,
2013-09-29 10:00:00,55.0,53.0,-100.00,NW,315,5.0,-999.0,93,-99.99,,,-99.99,136.880005,,2013-09-29 14:00:00,
2013-09-29 10:43:00,55.0,53.0,-100.00,NW,315,5.0,-999.0,93,-99.99,,,-99.99,136.880005,,2013-09-29 14:43:00,
2013-09-29 10:52:00,55.0,53.0,-100.00,NW,315,5.0,-999.0,93,-99.99,,,-99.99,136.880005,,2013-09-29 14:52:00,
2013-09-29 11:00:00,59.0,54.0,-100.00,WNW,292,4.0,-999.0,83,-99.99,,,-99.99,341.040009,,2013-09-29 15:00:00,
2013-09-29 11:45:00,59.0,54.0,-100.00,WNW,292,4.0,-999.0,83,-99.99,,,-99.99,341.040009,,2013-09-29 15:45:00,
2013-09-29 11:55:00,59.0,54.0,-100.00,WNW,292,4.0,-999.0,83,-99.99,,,-99.99,341.040009,,2013-09-29 15:55:00,
2013-09-29 12:00:00,61.0,52.0,-100.00,WSW,247,4.0,-999.0,73,-99.99,,,-99.99,432.679993,,2013-09-29 16:00:00,
2013-09-29 12:44:00,61.0,52.0,-100.00,WSW,247,4.0,-999.0,73,-99.99,,,-99.99,432.679993,,2013-09-29 16:44:00,
2013-09-29 12:54:00,61.0,52.0,-100.00,WSW,247,4.0,-999.0,73,-99.99,,,-99.99,432.679993,,2013-09-29 16:54:00,
2013-09-29 13:00:00,63.0,51.0,-100.00,West,270,4.0,-999.0,65,-99.99,,,-99.99,433.839996,,2013-09-29 17:00:00,
2013-09-29 13:43:00,63.0,51.0,-100.00,West,270,4.0,-999.0,65,-99.99,,,-99.99,433.839996,,2013-09-29 17:43:00,
2013-09-29 13:52:00,63.0,51.0,-100.00,West,270,4.0,-999.0,65,-99.99,,,-99.99,433.839996,,2013-09-29 17:52:00,
2013-09-29 14:00:00,65.0,50.0,-100.00,SW,225,4.0,-999.0,57,-99.99,,,-99.99,549.840027,,2013-09-29 18:00:00,
2013-09-29 14:42:00,65.0,50.0,-100.00,SW,225,4.0,-999.0,57,-99.99,,,-99.99,549.840027,,2013-09-29 18:42:00,
2013-09-29 14:52:00,65.0,50.0,-100.00,SW,225,4.0,-999.0,57,-99.99,,,-99.99,549.840027,,2013-09-29 18:52:00,
2013-09-29 15:00:00,66.0,49.0,-100.00,WSW,247,4.0,-999.0,54,-99.99,,,-99.99,501.119995,,2013-09-29 19:00:00,
2013-09-29 15:42:00,66.0,49.0,-100.00,WSW,247,4.0,-999.0,54,-99.99,,,-99.99,501.119995,,2013-09-29 19:42:00,
2013-09-29 15:52:00,66.0,49.0,-100.00,WSW,247,4.0,-999.0,54,-99.99,,,-99.99,501.119995,,2013-09-29 19:52:00,
2013-09-29 16:00:00,67.0,48.0,-100.00,WSW,247,3.0,-999.0,50,-99.99,,,-99.99,465.160004,,2013-09-29 20:00:00,
2013-09-29 16:43:00,67.0,48.0,-100.00,WSW,247,3.0,-999.0,50,-99.99,,,-99.99,465.160004,,2013-09-29 20:43:00,
2013-09-29 16:52:00,67.0,48.0,-100.00,WSW,247,3.0,-999.0,50,-99.99,,,-99.99,465.160004,,2013-09-29 20:52:00,
2013-09-29 17:00:00,68.0,48.0,-100.00,WSW,247,3.0,-999.0,48,-99.99,,,-99.99,382.799988,,2013-09-29 21:00:00,
2013-09-29 17:44:00,68.0,48.0,-100.00,WSW,247,3.0,-999.0,48,-99.99,,,-99.99,382.799988,,2013-09-29 21:44:00,
2013-09-29 17:55:00,68.0,48.0,-100.00,WSW,247,3.0,-999.0,48,-99.99,,,-99.99,382.799988,,2013-09-29 21:55:00,
2013-09-29 18:00:00,68.0,47.0,-100.00,WSW,247,3.0,-999.0,46,-99.99,,,-99.99,287.679993,,2013-09-29 22:00:00,
2013-09-29 18:43:00,68.0,47.0,-100.00,WSW,247,3.0,-999.0,46,-99.99,,,-99.99,287.679993,,2013-09-29 22:43:00,
2013-09-29 18:53:00,68.0,47.0,-100.00,WSW,247,3.0,-999.0,46,-99.99,,,-99.99,287.679993,,2013-09-29 22:53:00,
2013-09-29 19:00:00,67.0,47.0,-100.00,NW,315,3.0,-999.0,49,-99.99,,,-99.99,120.639999,,2013-09-29 23:00:00,
2013-09-29 19:43:00,67.0,47.0,-100.00,NW,315,3.0,-999.0,49,-99.99,,,-99.99,120.639999,,2013-09-29 23:43:00,
2013-09-29 19:53:00,67.0,47.0,-100.00,NW,315,3.0,-999.0,49,-99.99,,,-99.99,120.639999,,2013-09-29 23:53:00,
2013-09-29 20:00:00,59.0,48.0,-100.00,NW,315,3.0,-999.0,66,-99.99,,,-99.99,8.120000,,2013-09-30 00:00:00,
2013-09-29 20:42:00,59.0,48.0,-100.00,NW,315,3.0,-999.0,66,-99.99,,,-99.99,8.120000,,2013-09-30 00:42:00,
2013-09-29 20:52:00,59.0,48.0,-100.00,NW,315,3.0,-999.0,66,-99.99,,,-99.99,8.120000,,2013-09-30 00:52:00,
2013-09-29 21:00:00,56.0,47.0,-100.00,NW,315,3.0,-999.0,72,-99.99,,,-99.99,0.000000,,2013-09-30 01:00:00,
2013-09-29 21:42:00,56.0,47.0,-100.00,NW,315,3.0,-999.0,72,-99.99,,,-99.99,0.000000,,2013-09-30 01:42:00,
2013-09-29 21:52:00,56.0,47.0,-100.00,NW,315,3.0,-999.0,72,-99.99,,,-99.99,0.000000,,2013-09-30 01:52:00,
2013-09-29 22:00:00,56.0,47.0,-100.00,NNW,337,4.0,-999.0,72,-99.99,,,-99.99,0.000000,,2013-09-30 02:00:00,
2013-09-29 22:42:00,56.0,47.0,-100.00,NNW,337,4.0,-999.0,72,-99.99,,,-99.99,0.000000,,2013-09-30 02:42:00,
2013-09-29 22:52:00,56.0,47.0,-100.00,NNW,337,4.0,-999.0,72,-99.99,,,-99.99,0.000000,,2013-09-30 02:52:00,
2013-09-29 23:00:00,54.0,47.0,-100.00,NNW,337,4.0,-999.0,78,-99.99,,,-99.99,0.000000,,2013-09-30 03:00:00,
2013-09-29 23:45:00,54.0,47.0,-100.00,NNW,337,4.0,-999.0,78,-99.99,,,-99.99,0.000000,,2013-09-30 03:45:00,
2013-09-29 23:55:00,54.0,47.0,-100.00,NNW,337,4.0,-999.0,78,-99.99,,,-99.99,0.000000,,2013-09-30 03:55:00,